Aurora State Airport
KUAO : now visible

Airfield :











YOU CAN JOIN US ON...

 
LOGIN :

Register | Disclaimer

   EN    FR    IT 

 









Legend :    VFR   Marginal VFR   IFR   Intensive IFR   Very Intensive IFR
Visi :
Ceiling :
>= 8 km
>= 3000ft
5 to 8 km
1000 to 3000 ft
1500m to 5 km
500 to 1000 ft
800 to 1500m
200 to 500 ft
< 800m
< 200 ft
Symbols :   Thunderstorms  Fog  Heavy snow  Heavy precipitations  Wind > 20 kt







- Airport Elevation : 200 ft


KUAO - Aurora State

CURRENT METAR :
  • 220053Z 00000KT 10SM CLR 21/12 A3005 RMK AO2 SLP174 T02110122

EXPIRED METARs :
  • 212353Z 35006KT 10SM BKN033 22/13 A3006 RMK AO2 SLP177 T02220128 10228 20172 56018
  • 212332Z 35004KT 10SM SCT035 22/12 A3006 RMK AO2 T02220122
  • 212253Z VRB03KT 10SM CLR 22/13 A3007 RMK AO2 SLP182 T02220128

TAF KUAO
Valid from the 22 at 00:00 until the 23 at 00:00 UTC


212328Z 2200/2224 VRB03KT P6SM FEW035
FM221400 19005KT 6SM -RA OVC050
FM221500 19005KT 4SM -RA BR OVC050
FM221800 20004KT 4SM -RA HZ BR OVC015
No reported NOTAMs for that airfield.



MET'MAP, your aeronautical weather chart ! - Copyright ORBIFLY December 2007 - Disclaimer

ORBIFLY MET'MAP TEAM :

Programming & Development : Alexandra Zaïnal
Concept & Development : Baudouin d'Aumeries
Co-Development & Prog : Marc-Olivier Méhu
Technical & hardware support : Manuel Goepfert

Contact : metmap@orbifly.com




SOURCES & CREDITS :

   NOAA       Earth
Advisory